Time;durP1;ratioP1;P1;durP2;ratioP2;P2;SDS_P1;SDS_P2;PMS_P1;PMS_P2;Temp;Humidity;BMP_temperature;BMP_pressure;BME280_temperature;BME280_humidity;BME280_pressure;Samples;Min_cycle;Max_cycle;Signal;HPM_P1;HPM_P2
2021/09/07 00:00:07;;;;;;;20.57;15.97;;;16.20;99.90;;;;;;5055417;28;20230;-62
2021/09/07 00:02:39;;;;;;;18.97;16.97;;;16.20;99.90;;;;;;5047511;28;20231;-62
2021/09/07 00:05:11;;;;;;;21.13;18.53;;;16.20;99.90;;;;;;5048792;28;20279;-61
2021/09/07 00:07:40;;;;;;;22.87;18.40;;;16.20;99.90;;;;;;5048824;28;20661;-62
2021/09/07 00:10:10;;;;;;;20.33;18.03;;;16.00;99.90;;;;;;5048656;28;20311;-62
2021/09/07 00:12:42;;;;;;;22.03;17.90;;;15.90;99.90;;;;;;5047814;28;20661;-61
2021/09/07 00:15:13;;;;;;;19.80;17.30;;;15.90;99.90;;;;;;5048596;28;20629;-61
2021/09/07 00:17:42;;;;;;;20.63;17.10;;;15.90;99.90;;;;;;5048161;28;20248;-63
2021/09/07 00:20:11;;;;;;;19.53;16.83;;;15.90;99.90;;;;;;5048502;28;20750;-63
2021/09/07 00:22:39;;;;;;;20.47;17.13;;;15.90;99.90;;;;;;5047810;28;20239;-61
2021/09/07 00:25:08;;;;;;;20.17;17.97;;;16.00;99.90;;;;;;5048155;28;20236;-64
2021/09/07 00:27:37;;;;;;;19.77;17.33;;;16.00;99.90;;;;;;5048537;28;20285;-62
2021/09/07 00:30:08;;;;;;;23.63;17.80;;;16.00;99.90;;;;;;5030751;28;20233;-63
2021/09/07 00:32:36;;;;;;;20.17;17.27;;;16.00;99.90;;;;;;5027259;28;20247;-64
2021/09/07 00:35:07;;;;;;;21.10;16.00;;;16.00;99.90;;;;;;5032863;28;20606;-64
2021/09/07 00:37:36;;;;;;;19.20;16.33;;;16.10;99.90;;;;;;5042133;28;20691;-63
2021/09/07 00:40:06;;;;;;;18.63;16.43;;;16.00;99.90;;;;;;5027766;28;20623;-63
2021/09/07 00:42:36;;;;;;;20.70;17.33;;;16.00;99.90;;;;;;5022493;28;20237;-63
2021/09/07 00:45:08;;;;;;;19.63;16.60;;;15.90;99.90;;;;;;5018613;28;20271;-63
2021/09/07 00:47:37;;;;;;;19.23;15.83;;;15.90;99.90;;;;;;5016904;28;20232;-64
2021/09/07 00:50:06;;;;;;;20.37;17.53;;;15.90;99.90;;;;;;5022444;28;20232;-62
2021/09/07 00:52:36;;;;;;;21.70;16.87;;;15.80;99.90;;;;;;5021829;28;20621;-63
2021/09/07 00:55:05;;;;;;;18.27;15.80;;;15.90;99.90;;;;;;5014561;28;20312;-63
2021/09/07 00:57:35;;;;;;;16.27;14.57;;;15.90;99.90;;;;;;5017229;28;20233;-63
2021/09/07 01:00:17;;;;;;;16.51;14.72;;;15.90;99.90;;;;;;3806371;28;10021804;-63
2021/09/07 01:02:46;;;;;;;19.80;16.43;;;15.80;99.90;;;;;;2776111;28;10002029;-62
2021/09/07 01:05:16;;;;;;;19.97;16.23;;;15.90;99.90;;;;;;5047289;28;20481;-62
2021/09/07 01:07:44;;;;;;;17.03;15.17;;;15.70;99.90;;;;;;5047631;28;20255;-62
2021/09/07 01:10:13;;;;;;;16.57;14.87;;;15.80;99.90;;;;;;5046843;28;20232;-62
2021/09/07 01:12:45;;;;;;;19.83;16.03;;;15.80;99.90;;;;;;5047011;28;20285;-63
2021/09/07 01:15:16;;;;;;;17.10;15.23;;;15.80;99.90;;;;;;5047383;28;20311;-62
2021/09/07 01:17:48;;;;;;;18.37;16.10;;;15.80;99.90;;;;;;5047542;28;20323;-62
2021/09/07 01:20:16;;;;;;;16.80;15.00;;;15.70;99.90;;;;;;5046999;28;20720;-63
2021/09/07 01:22:44;;;;;;;17.33;15.53;;;15.80;99.90;;;;;;5046687;28;20552;-63
2021/09/07 01:25:14;;;;;;;18.70;16.57;;;15.70;99.90;;;;;;5047443;28;20703;-62
2021/09/07 01:27:42;;;;;;;15.57;13.70;;;15.70;99.90;;;;;;5037979;28;20233;-63
2021/09/07 01:30:14;;;;;;;17.00;15.20;;;15.70;99.90;;;;;;5020082;28;20241;-63
2021/09/07 01:32:45;;;;;;;17.83;15.70;;;15.70;99.90;;;;;;5020835;28;20320;-62
2021/09/07 01:35:13;;;;;;;18.30;15.77;;;15.70;99.90;;;;;;5025409;28;20291;-63
2021/09/07 01:37:42;;;;;;;17.07;15.23;;;15.70;99.90;;;;;;5027182;28;20240;-62
2021/09/07 01:40:12;;;;;;;17.13;14.37;;;15.70;99.90;;;;;;5021367;28;20278;-62
2021/09/07 01:42:42;;;;;;;17.67;15.77;;;15.80;99.90;;;;;;5020704;28;20241;-63
2021/09/07 01:45:11;;;;;;;18.67;16.23;;;15.70;99.90;;;;;;5046358;28;20243;-63
2021/09/07 01:47:40;;;;;;;20.53;15.90;;;15.60;99.90;;;;;;5050724;28;20262;-62
2021/09/07 01:50:09;;;;;;;17.17;15.27;;;15.60;99.90;;;;;;5057484;28;20354;-64
2021/09/07 01:52:38;;;;;;;17.23;15.43;;;15.80;99.90;;;;;;5056031;28;20246;-63
2021/09/07 01:55:06;;;;;;;17.03;15.27;;;15.80;99.90;;;;;;5052622;28;20734;-64
2021/09/07 01:57:35;;;;;;;20.03;16.70;;;15.60;99.90;;;;;;5052416;28;20259;-60
2021/09/07 02:00:13;;;;;;;19.27;16.10;;;15.60;99.90;;;;;;5055077;28;20266;-63
2021/09/07 02:02:41;;;;;;;16.90;15.10;;;15.70;99.90;;;;;;5046830;28;20232;-63
2021/09/07 02:05:10;;;;;;;17.67;15.27;;;15.70;99.90;;;;;;5045704;28;20296;-63
2021/09/07 02:07:38;;;;;;;16.37;14.60;;;15.50;99.90;;;;;;5052863;28;20254;-63
2021/09/07 02:10:08;;;;;;;15.17;13.67;;;15.60;99.90;;;;;;5051952;28;20316;-64
2021/09/07 02:12:38;;;;;;;16.73;14.93;;;15.60;99.90;;;;;;5052972;28;20235;-63
2021/09/07 02:15:07;;;;;;;14.57;13.17;;;15.50;99.90;;;;;;5054297;28;20318;-62
2021/09/07 02:17:38;;;;;;;13.40;12.00;;;15.50;99.90;;;;;;5049381;28;20242;-63
2021/09/07 02:20:09;;;;;;;11.17;10.03;;;15.50;99.90;;;;;;5057373;28;20682;-63
2021/09/07 02:22:41;;;;;;;11.87;10.77;;;15.40;99.90;;;;;;5056387;28;20227;-63
2021/09/07 02:25:11;;;;;;;12.13;11.00;;;15.40;99.90;;;;;;5050746;28;20242;-61
2021/09/07 02:27:39;;;;;;;12.17;10.97;;;15.30;99.90;;;;;;5049763;28;20232;-63
2021/09/07 02:30:08;;;;;;;13.33;12.03;;;15.20;99.90;;;;;;5052134;28;20270;-63
2021/09/07 02:32:38;;;;;;;12.93;11.53;;;15.30;99.90;;;;;;5053996;28;20614;-62
2021/09/07 02:35:07;;;;;;;13.67;12.27;;;15.40;99.90;;;;;;5054213;28;20309;-63
2021/09/07 02:37:36;;;;;;;13.77;12.33;;;15.30;99.90;;;;;;5051903;28;20286;-64
2021/09/07 02:40:06;;;;;;;14.47;12.97;;;15.40;99.90;;;;;;5054637;28;20312;-62
2021/09/07 02:42:35;;;;;;;15.87;14.23;;;15.30;99.90;;;;;;5049713;28;20232;-63
2021/09/07 02:45:04;;;;;;;16.13;13.87;;;15.30;99.90;;;;;;5048696;28;20275;-63
2021/09/07 02:47:34;;;;;;;16.37;13.10;;;15.30;99.90;;;;;;5050361;28;20231;-63
2021/09/07 02:50:03;;;;;;;16.87;13.50;;;15.30;99.90;;;;;;5053685;28;20239;-62
2021/09/07 02:52:32;;;;;;;15.47;13.50;;;15.20;99.90;;;;;;5046920;28;20243;-63
2021/09/07 02:55:00;;;;;;;15.43;13.80;;;15.10;99.90;;;;;;5058096;28;20235;-62
2021/09/07 02:57:29;;;;;;;16.33;14.50;;;15.20;99.90;;;;;;5059360;28;20247;-62
2021/09/07 02:59:58;;;;;;;15.53;13.93;;;15.20;99.90;;;;;;5058613;28;20224;-63
2021/09/07 03:02:26;;;;;;;15.37;13.07;;;15.10;99.90;;;;;;5056260;28;20619;-63
2021/09/07 03:04:55;;;;;;;14.63;13.13;;;15.10;99.90;;;;;;5064328;28;20238;-63
2021/09/07 03:07:25;;;;;;;15.40;13.43;;;15.00;99.90;;;;;;5058088;28;20342;-62
2021/09/07 03:09:53;;;;;;;16.47;14.27;;;15.00;99.90;;;;;;5062312;28;20333;-63
2021/09/07 03:12:21;;;;;;;16.53;14.00;;;15.10;99.90;;;;;;5050551;28;20239;-62
2021/09/07 03:14:49;;;;;;;15.40;13.73;;;15.00;99.90;;;;;;5051964;28;20687;-62
2021/09/07 03:17:18;;;;;;;17.67;13.93;;;15.00;99.90;;;;;;5052570;28;20235;-63
2021/09/07 03:19:46;;;;;;;16.30;13.70;;;14.90;99.90;;;;;;5053911;28;20810;-63
2021/09/07 03:22:15;;;;;;;15.10;13.50;;;14.90;99.90;;;;;;5055009;28;20223;-63
2021/09/07 03:24:44;;;;;;;15.87;14.17;;;14.90;99.90;;;;;;5051637;28;20226;-63
2021/09/07 03:27:12;;;;;;;15.03;13.53;;;14.90;99.90;;;;;;5058606;28;20227;-61
2021/09/07 03:29:41;;;;;;;15.80;13.47;;;14.90;99.90;;;;;;5050371;28;20243;-62
2021/09/07 03:32:10;;;;;;;15.27;13.30;;;14.80;99.90;;;;;;5060567;28;20242;-62
2021/09/07 03:34:38;;;;;;;16.10;14.40;;;14.70;99.90;;;;;;5043923;28;20263;-62
2021/09/07 03:37:07;;;;;;;17.40;14.30;;;14.70;99.90;;;;;;5041560;28;20275;-62
2021/09/07 03:39:35;;;;;;;13.80;12.40;;;14.80;99.90;;;;;;5033981;28;20244;-63
2021/09/07 03:42:06;;;;;;;16.23;13.93;;;14.80;99.90;;;;;;5025336;28;20241;-63
2021/09/07 03:44:34;;;;;;;16.57;12.70;;;14.80;99.90;;;;;;5022274;28;20320;-62
2021/09/07 03:47:04;;;;;;;14.37;12.47;;;14.80;99.90;;;;;;5027306;28;20244;-62
2021/09/07 03:49:32;;;;;;;11.27;10.03;;;14.70;99.90;;;;;;5022231;28;20240;-62
2021/09/07 03:52:01;;;;;;;11.27;10.13;;;14.70;99.90;;;;;;5020595;28;20260;-62
2021/09/07 03:54:29;;;;;;;11.03;9.97;;;14.60;99.90;;;;;;5028458;28;20254;-63
2021/09/07 03:56:58;;;;;;;11.10;10.00;;;14.50;99.90;;;;;;5025009;28;20233;-61
2021/09/07 03:59:28;;;;;;;10.10;9.10;;;14.60;99.90;;;;;;5027048;28;20232;-63
2021/09/07 04:01:57;;;;;;;9.67;8.73;;;14.60;99.90;;;;;;5024692;28;20229;-63
2021/09/07 04:04:26;;;;;;;9.43;8.57;;;14.60;99.90;;;;;;5023830;28;20290;-62
2021/09/07 04:06:56;;;;;;;9.27;8.33;;;14.50;99.90;;;;;;5024478;28;20244;-62
2021/09/07 04:09:26;;;;;;;10.87;9.87;;;14.40;99.90;;;;;;5027429;28;20631;-62
2021/09/07 04:11:54;;;;;;;10.17;9.17;;;14.50;99.90;;;;;;5023257;28;20241;-63
2021/09/07 04:14:23;;;;;;;10.40;9.40;;;14.40;99.90;;;;;;5027437;28;20724;-61
2021/09/07 04:16:53;;;;;;;10.27;9.37;;;14.60;99.90;;;;;;5026548;28;20271;-63
2021/09/07 04:19:21;;;;;;;11.43;10.33;;;14.60;99.90;;;;;;5025103;28;20241;-62
2021/09/07 04:21:50;;;;;;;11.33;10.13;;;14.40;99.90;;;;;;5019476;28;20236;-62
2021/09/07 04:24:18;;;;;;;13.00;11.70;;;14.40;99.90;;;;;;5017971;28;20245;-63
2021/09/07 04:26:46;;;;;;;17.63;13.97;;;14.40;99.90;;;;;;5021428;28;20592;-63
2021/09/07 04:29:14;;;;;;;17.00;14.47;;;14.50;99.90;;;;;;5021507;28;20315;-63
2021/09/07 04:31:43;;;;;;;14.83;12.43;;;14.50;99.90;;;;;;5027165;28;20236;-60
2021/09/07 04:34:12;;;;;;;16.03;13.63;;;14.50;99.90;;;;;;5025230;28;20237;-60
2021/09/07 04:36:40;;;;;;;19.93;15.13;;;14.50;99.90;;;;;;5022757;28;20236;-63
2021/09/07 04:39:08;;;;;;;17.47;13.60;;;14.60;99.90;;;;;;5027785;28;20267;-63
2021/09/07 04:41:36;;;;;;;16.90;13.57;;;14.60;99.90;;;;;;5023853;28;20237;-63
2021/09/07 04:44:05;;;;;;;16.27;13.73;;;14.50;99.90;;;;;;5023334;28;20233;-63
2021/09/07 04:46:36;;;;;;;15.93;13.27;;;14.40;99.90;;;;;;5024934;28;20688;-63
2021/09/07 04:49:04;;;;;;;16.70;13.87;;;14.40;99.90;;;;;;5020968;28;20799;-64
2021/09/07 04:51:34;;;;;;;14.33;12.93;;;14.40;99.90;;;;;;5026307;28;20336;-63
2021/09/07 04:54:02;;;;;;;17.07;13.40;;;14.30;99.90;;;;;;5020575;28;20545;-62
2021/09/07 04:56:30;;;;;;;16.90;13.90;;;14.30;99.90;;;;;;5024684;28;20240;-63
2021/09/07 04:58:58;;;;;;;13.67;12.33;;;14.40;99.90;;;;;;5022738;28;20260;-62
2021/09/07 05:01:26;;;;;;;18.57;14.43;;;14.20;99.90;;;;;;5021177;28;20240;-61
2021/09/07 05:03:55;;;;;;;14.83;13.30;;;14.40;99.90;;;;;;5022555;28;20241;-62
2021/09/07 05:06:23;;;;;;;15.93;13.20;;;14.50;99.90;;;;;;5022573;28;20614;-63
2021/09/07 05:08:52;;;;;;;12.87;11.67;;;14.40;99.90;;;;;;5020743;28;20725;-63
2021/09/07 05:11:21;;;;;;;14.07;12.67;;;14.50;99.90;;;;;;5023357;28;20247;-62
2021/09/07 05:13:49;;;;;;;15.43;13.13;;;14.50;99.90;;;;;;5008997;28;20598;-62
2021/09/07 05:16:17;;;;;;;14.73;12.77;;;14.60;99.90;;;;;;5005867;28;20314;-62
2021/09/07 05:18:45;;;;;;;14.70;13.23;;;14.70;99.90;;;;;;5004112;28;20241;-61
2021/09/07 05:21:13;;;;;;;13.00;11.80;;;14.60;99.90;;;;;;5009037;28;20355;-62
2021/09/07 05:23:42;;;;;;;15.70;14.00;;;14.50;99.90;;;;;;5005900;28;20639;-62
2021/09/07 05:26:11;;;;;;;14.37;12.90;;;14.60;99.90;;;;;;5002204;28;20276;-61
2021/09/07 05:28:39;;;;;;;17.30;13.50;;;14.50;99.90;;;;;;5003241;28;20252;-62
2021/09/07 05:31:17;;;;;;;14.50;13.10;;;14.50;99.90;;;;;;5005070;28;20243;-64
2021/09/07 05:33:46;;;;;;;15.17;13.57;;;14.40;99.90;;;;;;5003954;28;20487;-62
2021/09/07 05:36:14;;;;;;;14.80;12.80;;;14.30;99.90;;;;;;5004281;28;20229;-62
2021/09/07 05:38:43;;;;;;;14.13;12.63;;;14.40;99.90;;;;;;5007598;28;21625;-62
2021/09/07 05:41:12;;;;;;;14.77;13.23;;;14.40;99.90;;;;;;4997690;28;20701;-61
2021/09/07 05:43:41;;;;;;;14.93;13.27;;;14.30;99.90;;;;;;4985558;28;20450;-59
2021/09/07 05:46:10;;;;;;;13.90;12.50;;;14.30;99.90;;;;;;4985022;28;20265;-61
2021/09/07 05:48:38;;;;;;;14.23;12.73;;;14.40;99.90;;;;;;5003104;28;20248;-61
2021/09/07 05:51:06;;;;;;;19.43;13.87;;;14.40;99.90;;;;;;4988383;28;20348;-61
2021/09/07 05:53:35;;;;;;;17.87;12.97;;;14.50;99.90;;;;;;4985740;28;20279;-62
2021/09/07 05:56:03;;;;;;;15.53;12.73;;;14.60;99.90;;;;;;4979219;28;20245;-60
2021/09/07 05:58:32;;;;;;;17.30;11.57;;;14.70;99.90;;;;;;4991800;28;20331;-61
2021/09/07 06:01:00;;;;;;;15.00;12.40;;;14.80;99.90;;;;;;4992975;28;20535;-59
2021/09/07 06:03:29;;;;;;;14.53;12.30;;;14.90;99.90;;;;;;4984427;28;20569;-61
2021/09/07 06:05:58;;;;;;;16.60;12.37;;;14.90;99.90;;;;;;4988837;28;20237;-60
2021/09/07 06:08:28;;;;;;;12.97;11.83;;;15.00;99.90;;;;;;4992194;28;20249;-61
2021/09/07 06:10:56;;;;;;;12.20;11.00;;;15.10;99.90;;;;;;4991920;28;20609;-61
2021/09/07 06:13:24;;;;;;;12.37;11.23;;;15.20;99.90;;;;;;4983883;28;20246;-61
2021/09/07 06:15:53;;;;;;;12.20;11.10;;;15.30;99.90;;;;;;4990167;28;20355;-62
2021/09/07 06:18:21;;;;;;;11.80;10.80;;;15.40;99.90;;;;;;4991469;28;20228;-59
2021/09/07 06:20:50;;;;;;;14.10;12.80;;;15.40;99.90;;;;;;4988886;28;20245;-60
2021/09/07 06:23:18;;;;;;;12.07;10.87;;;15.50;99.90;;;;;;4984086;28;20245;-61
2021/09/07 06:25:46;;;;;;;14.33;12.43;;;15.60;99.90;;;;;;4990255;28;20252;-61
2021/09/07 06:28:19;;;;;;;12.33;11.23;;;15.60;99.90;;;;;;4996923;28;20251;-60
2021/09/07 06:30:48;;;;;;;12.67;11.37;;;15.70;99.90;;;;;;4996154;28;20232;-62
2021/09/07 06:33:18;;;;;;;17.17;11.37;;;15.90;99.90;;;;;;5000563;28;21561;-61
2021/09/07 06:35:46;;;;;;;12.73;11.43;;;16.00;99.90;;;;;;5008582;28;20244;-60
2021/09/07 06:38:15;;;;;;;12.57;11.27;;;16.10;99.90;;;;;;4998642;28;20604;-62
2021/09/07 06:40:43;;;;;;;12.60;10.73;;;16.20;99.90;;;;;;5004926;28;20512;-61
2021/09/07 06:43:11;;;;;;;13.73;12.33;;;16.30;99.90;;;;;;4996242;28;20419;-62
2021/09/07 06:45:42;;;;;;;13.57;11.13;;;16.50;99.90;;;;;;5005328;28;20248;-62
2021/09/07 06:48:10;;;;;;;13.43;12.03;;;16.60;99.90;;;;;;4998735;28;20244;-62
2021/09/07 06:50:39;;;;;;;12.27;11.00;;;16.60;99.90;;;;;;5004345;28;20735;-62
2021/09/07 06:53:08;;;;;;;12.23;10.93;;;16.70;99.90;;;;;;5001279;28;20263;-62
2021/09/07 06:55:38;;;;;;;13.93;12.53;;;16.80;99.90;;;;;;4999984;28;20229;-60
2021/09/07 06:58:06;;;;;;;13.23;11.97;;;17.00;99.90;;;;;;5007919;28;20323;-62
2021/09/07 07:00:34;;;;;;;13.57;11.53;;;17.20;99.90;;;;;;5004459;28;20274;-62
2021/09/07 07:03:04;;;;;;;11.30;10.07;;;17.40;99.90;;;;;;5000848;28;20249;-61
2021/09/07 07:05:33;;;;;;;11.93;10.77;;;17.60;99.90;;;;;;5002004;28;20272;-63
2021/09/07 07:08:05;;;;;;;12.23;11.13;;;17.90;99.90;;;;;;5005875;28;20245;-61
2021/09/07 07:10:34;;;;;;;10.57;9.47;;;18.20;99.90;;;;;;5006903;28;20916;-62
2021/09/07 07:13:03;;;;;;;10.17;9.10;;;18.40;99.90;;;;;;5003601;28;20713;-61
2021/09/07 07:15:31;;;;;;;9.30;8.40;;;18.70;99.90;;;;;;5000234;28;20281;-61
2021/09/07 07:17:59;;;;;;;8.87;8.07;;;18.90;99.90;;;;;;5003375;28;20242;-62
2021/09/07 07:20:28;;;;;;;8.87;8.07;;;19.10;99.90;;;;;;5005998;28;20245;-62
2021/09/07 07:22:56;;;;;;;9.73;7.80;;;19.20;99.90;;;;;;4997901;28;20251;-62
2021/09/07 07:25:25;;;;;;;9.53;7.77;;;19.30;99.90;;;;;;5005353;28;20365;-62
2021/09/07 07:27:53;;;;;;;10.07;8.53;;;19.40;99.90;;;;;;5005756;28;20791;-62
2021/09/07 07:30:21;;;;;;;7.90;6.87;;;19.60;99.90;;;;;;4994174;28;20252;-61
2021/09/07 07:32:50;;;;;;;12.23;7.67;;;19.90;99.90;;;;;;5004806;28;20330;-62
2021/09/07 07:35:18;;;;;;;8.27;7.40;;;20.10;99.90;;;;;;5006189;28;20246;-62
2021/09/07 07:37:46;;;;;;;10.47;8.00;;;20.20;99.90;;;;;;5003042;28;21051;-63
2021/09/07 07:40:14;;;;;;;8.07;7.27;;;20.20;99.90;;;;;;5000577;28;20682;-62
2021/09/07 07:42:43;;;;;;;10.63;7.10;;;20.10;99.90;;;;;;4995897;28;20236;-62
2021/09/07 07:45:12;;;;;;;11.17;8.40;;;20.00;99.90;;;;;;5004602;28;20355;-62
2021/09/07 07:47:40;;;;;;;11.63;8.70;;;19.90;99.90;;;;;;5006550;28;20316;-62
2021/09/07 07:50:09;;;;;;;10.70;9.13;;;20.00;99.90;;;;;;4996445;28;20331;-62
2021/09/07 07:52:38;;;;;;;9.13;7.97;;;20.00;99.90;;;;;;4999378;28;20247;-61
2021/09/07 07:55:06;;;;;;;9.93;8.87;;;20.10;99.90;;;;;;5002107;28;21227;-61
2021/09/07 07:57:34;;;;;;;10.73;8.80;;;20.10;99.90;;;;;;5004215;28;20651;-62
2021/09/07 08:00:05;;;;;;;10.20;8.67;;;20.00;99.90;;;;;;4998410;28;20608;-61
2021/09/07 08:02:39;;;;;;;12.03;10.10;;;20.00;99.90;;;;;;4996124;28;20340;-62
2021/09/07 08:05:09;;;;;;;13.27;9.53;;;19.90;99.90;;;;;;5005917;28;20543;-63
2021/09/07 08:07:41;;;;;;;10.93;9.70;;;19.70;99.90;;;;;;5002213;28;20239;-62
2021/09/07 08:10:11;;;;;;;9.80;8.53;;;19.80;99.90;;;;;;5003025;28;20241;-60
2021/09/07 08:12:39;;;;;;;11.70;9.43;;;20.10;99.90;;;;;;5024516;28;20759;-62
2021/09/07 08:15:09;;;;;;;12.30;8.10;;;20.30;99.90;;;;;;5026404;28;20322;-62
2021/09/07 08:17:37;;;;;;;11.27;9.67;;;20.60;99.90;;;;;;5016234;28;20504;-62
2021/09/07 08:20:08;;;;;;;11.83;9.60;;;21.00;99.90;;;;;;5023010;28;20235;-62
2021/09/07 08:22:37;;;;;;;8.27;7.37;;;21.40;99.90;;;;;;5021974;28;20255;-62
2021/09/07 08:25:05;;;;;;;13.00;7.93;;;21.70;99.90;;;;;;5024817;28;20253;-61
2021/09/07 08:27:33;;;;;;;10.17;7.63;;;22.20;99.90;;;;;;5017472;28;20325;-62
2021/09/07 08:30:05;;;;;;;8.97;7.53;;;22.40;99.90;;;;;;5024394;28;20236;-61
2021/09/07 08:32:39;;;;;;;9.57;8.27;;;22.40;99.90;;;;;;5015341;28;20731;-61
2021/09/07 08:35:08;;;;;;;9.40;7.13;;;22.70;99.90;;;;;;5024132;28;20324;-61
2021/09/07 08:37:37;;;;;;;12.20;7.50;;;23.00;99.90;;;;;;5022155;28;20244;-61
2021/09/07 08:40:07;;;;;;;8.87;6.70;;;23.10;99.90;;;;;;5022042;28;20429;-62
2021/09/07 08:42:37;;;;;;;9.87;6.40;;;23.20;99.90;;;;;;5018311;28;20657;-61
2021/09/07 08:45:08;;;;;;;8.93;7.10;;;23.40;99.90;;;;;;5018767;28;20247;-62
2021/09/07 08:47:38;;;;;;;11.57;6.20;;;23.40;99.90;;;;;;5019931;28;20940;-63
2021/09/07 08:50:07;;;;;;;7.93;5.97;;;23.50;99.90;;;;;;5033275;28;20240;-63
2021/09/07 08:52:36;;;;;;;7.77;6.23;;;23.50;99.90;;;;;;5032745;28;20256;-62
2021/09/07 08:55:05;;;;;;;6.73;5.63;;;23.60;99.90;;;;;;5039932;28;20586;-63
2021/09/07 08:57:33;;;;;;;6.77;5.17;;;23.70;99.90;;;;;;5044127;28;20252;-62
2021/09/07 09:00:04;;;;;;;7.43;4.63;;;23.90;99.90;;;;;;5042248;28;20243;-62
2021/09/07 09:02:41;;;;;;;5.83;4.70;;;24.00;99.90;;;;;;5039282;28;20566;-63
2021/09/07 09:05:11;;;;;;;7.67;4.97;;;24.10;99.90;;;;;;5043470;28;20275;-63
2021/09/07 09:07:39;;;;;;;8.43;5.20;;;24.20;99.90;;;;;;5042261;28;20239;-61
2021/09/07 09:10:18;;;;;;;6.93;5.37;;;24.20;99.90;;;;;;5037785;28;20237;-62
2021/09/07 09:12:46;;;;;;;5.00;4.40;;;24.40;99.90;;;;;;5039830;28;20243;-63
2021/09/07 09:15:16;;;;;;;7.60;6.13;;;24.70;99.90;;;;;;5039804;28;20249;-61
2021/09/07 09:17:46;;;;;;;6.27;4.63;;;24.80;99.90;;;;;;5040062;28;20244;-62
2021/09/07 09:20:17;;;;;;;8.47;5.57;;;24.90;99.90;;;;;;5042505;28;20231;-63
2021/09/07 09:22:48;;;;;;;7.00;4.77;;;25.00;99.90;;;;;;5041735;28;20242;-63
2021/09/07 09:25:41;;;;;;;7.03;4.87;;;25.00;99.90;;;;;;5032585;28;20233;-62
2021/09/07 09:28:20;;;;;;;6.53;4.10;;;25.10;99.90;;;;;;5036630;28;20242;-62
2021/09/07 09:30:51;;;;;;;6.47;4.90;;;25.30;99.90;;;;;;5032878;28;20251;-63
2021/09/07 09:33:22;;;;;;;7.87;5.67;;;25.40;99.90;;;;;;5035740;28;20233;-64
2021/09/07 09:35:56;;;;;;;7.73;6.53;;;25.40;99.90;;;;;;5041260;28;20268;-62
2021/09/07 09:38:26;;;;;;;7.87;4.90;;;25.40;99.90;;;;;;5037491;28;20326;-62
2021/09/07 09:40:57;;;;;;;6.50;4.93;;;25.90;99.90;;;;;;5040820;28;20329;-63
2021/09/07 09:43:43;;;;;;;7.63;5.00;;;26.20;99.90;;;;;;5041883;28;20262;-63
2021/09/07 09:46:22;;;;;;;7.90;6.00;;;26.20;99.90;;;;;;5041713;28;20701;-63
2021/09/07 09:48:53;;;;;;;7.30;5.77;;;26.10;99.90;;;;;;5041468;28;20317;-62
2021/09/07 09:51:23;;;;;;;8.57;6.17;;;26.00;99.90;;;;;;5041688;28;20246;-62
2021/09/07 09:53:52;;;;;;;7.80;4.93;;;26.20;99.90;;;;;;5039167;28;20243;-62
2021/09/07 09:56:20;;;;;;;6.23;5.37;;;26.40;99.90;;;;;;5038375;28;20247;-61
2021/09/07 09:58:50;;;;;;;6.33;4.73;;;26.40;99.90;;;;;;5036373;28;20617;-62
2021/09/07 10:01:19;;;;;;;7.63;5.10;;;26.50;99.90;;;;;;5036778;28;20247;-62
2021/09/07 10:03:49;;;;;;;5.53;4.80;;;26.50;99.90;;;;;;5037171;28;20360;-63
2021/09/07 10:06:20;;;;;;;7.03;5.73;;;26.50;99.90;;;;;;5035034;28;20270;-61
2021/09/07 10:08:49;;;;;;;7.00;5.23;;;26.20;99.90;;;;;;5037940;28;20238;-63
2021/09/07 10:11:20;;;;;;;7.27;4.70;;;26.70;99.90;;;;;;5037061;28;20262;-61
2021/09/07 10:13:53;;;;;;;5.30;4.40;;;26.70;99.90;;;;;;5038339;28;20247;-61
2021/09/07 10:16:33;;;;;;;6.63;4.67;;;26.60;99.90;;;;;;5037013;28;20246;-62
2021/09/07 10:19:09;;;;;;;7.63;5.97;;;26.80;99.90;;;;;;5032047;28;20320;-63
2021/09/07 10:24:53;;;;;;;6.00;4.63;;;26.40;99.90;;;;;;5041821;28;20579;-62
2021/09/07 10:27:23;;;;;;;7.70;5.90;;;26.10;99.90;;;;;;5036075;28;20342;-62
2021/09/07 10:29:52;;;;;;;7.63;6.33;;;25.90;99.90;;;;;;5040664;28;20263;-61
2021/09/07 10:32:33;;;;;;;6.77;5.10;;;25.40;99.90;;;;;;5026738;28;20249;-62
2021/09/07 10:35:08;;;;;;;5.17;4.40;;;25.50;99.90;;;;;;5037052;28;20346;-61
2021/09/07 10:38:08;;;;;;;7.60;5.57;;;25.60;99.90;;;;;;5032688;28;20305;-62
2021/09/07 10:40:48;;;;;;;5.30;4.80;;;25.50;99.90;;;;;;5030559;28;20603;-62
2021/09/07 10:43:48;;;;;;;5.17;4.47;;;25.40;99.90;;;;;;5025251;28;20726;-62
2021/09/07 10:46:17;;;;;;;7.27;5.07;;;25.60;99.90;;;;;;5039002;28;20733;-61
2021/09/07 10:48:45;;;;;;;6.47;5.07;;;25.80;99.90;;;;;;5029174;28;20239;-63
2021/09/07 10:51:13;;;;;;;8.00;5.67;;;25.90;99.90;;;;;;5022792;28;20243;-62
2021/09/07 10:54:09;;;;;;;6.40;5.10;;;25.70;99.90;;;;;;5022600;28;20248;-62
2021/09/07 10:56:41;;;;;;;6.87;5.53;;;25.90;99.90;;;;;;5024389;28;20714;-62
2021/09/07 10:59:43;;;;;;;8.90;5.77;;;26.20;99.90;;;;;;5023464;28;20731;-62
2021/09/07 11:02:34;;;;;;;7.73;5.87;;;26.20;99.90;;;;;;5024306;28;20693;-62
2021/09/07 11:05:11;;;;;;;8.30;5.67;;;26.30;99.90;;;;;;5025115;28;20274;-61
2021/09/07 11:07:41;;;;;;;6.63;4.50;;;26.40;99.90;;;;;;5025288;28;20767;-61
2021/09/07 11:10:28;;;;;;;5.83;4.80;;;26.50;99.90;;;;;;5023961;28;20354;-62
2021/09/07 11:13:00;;;;;;;8.07;5.97;;;26.80;99.90;;;;;;5025822;28;20246;-62
2021/09/07 11:15:32;;;;;;;6.30;5.07;;;26.90;99.90;;;;;;5022181;28;20329;-61
2021/09/07 11:18:02;;;;;;;7.63;5.03;;;27.00;99.90;;;;;;5027284;28;20267;-62
2021/09/07 11:20:33;;;;;;;6.87;4.50;;;26.80;99.90;;;;;;5027721;28;20926;-62
2021/09/07 11:23:09;;;;;;;6.17;5.13;;;26.80;99.90;;;;;;5028825;28;20318;-62
2021/09/07 11:25:40;;;;;;;7.27;5.53;;;26.50;99.90;;;;;;5026537;28;20243;-62
2021/09/07 11:28:12;;;;;;;6.87;5.33;;;26.10;99.90;;;;;;5026073;28;20358;-60
2021/09/07 11:30:41;;;;;;;7.10;5.07;;;26.10;99.90;;;;;;5028443;28;20330;-61
2021/09/07 11:33:11;;;;;;;6.77;5.40;;;26.20;99.90;;;;;;5031805;28;21201;-62
2021/09/07 11:35:43;;;;;;;6.53;4.60;;;26.20;99.90;;;;;;5041377;28;20235;-62
2021/09/07 11:38:13;;;;;;;6.00;5.07;;;26.30;99.90;;;;;;5043380;28;20266;-62
2021/09/07 11:40:44;;;;;;;6.73;4.73;;;26.40;99.90;;;;;;5043982;28;20748;-62
2021/09/07 11:43:14;;;;;;;7.80;5.23;;;26.60;99.90;;;;;;5044592;28;20232;-62
2021/09/07 11:45:42;;;;;;;7.70;5.17;;;26.90;99.90;;;;;;5043148;28;20246;-63
2021/09/07 11:48:10;;;;;;;6.27;5.30;;;27.10;99.90;;;;;;5054568;28;20325;-62
2021/09/07 11:50:40;;;;;;;8.70;6.17;;;26.90;99.90;;;;;;5047497;28;20236;-62
2021/09/07 11:53:10;;;;;;;5.93;4.93;;;26.70;99.90;;;;;;5047811;28;20267;-63
2021/09/07 11:55:57;;;;;;;7.87;5.80;;;26.50;99.90;;;;;;5055686;28;20245;-63
2021/09/07 11:58:31;;;;;;;8.73;6.10;;;26.20;99.90;;;;;;5049989;28;20755;-63
2021/09/07 12:01:09;;;;;;;8.97;6.20;;;25.90;99.90;;;;;;5047429;28;20222;-61
2021/09/07 12:03:52;;;;;;;7.87;6.03;;;25.40;99.90;;;;;;5046808;28;20235;-63
2021/09/07 12:06:32;;;;;;;7.30;5.43;;;25.20;99.90;;;;;;5042947;28;20279;-62
2021/09/07 12:09:11;;;;;;;6.50;4.97;;;25.40;99.90;;;;;;5040504;28;20717;-62
2021/09/07 12:11:42;;;;;;;7.87;5.17;;;25.70;99.90;;;;;;5038433;28;20318;-64
2021/09/07 12:14:12;;;;;;;8.27;5.80;;;25.80;99.90;;;;;;5025725;28;20286;-62
2021/09/07 12:16:50;;;;;;;7.87;5.90;;;25.30;99.90;;;;;;5024978;28;20239;-62
2021/09/07 12:19:29;;;;;;;8.30;5.73;;;25.50;99.90;;;;;;5015396;28;20327;-62
2021/09/07 12:22:06;;;;;;;7.97;5.70;;;25.50;99.90;;;;;;5015296;28;20263;-63
2021/09/07 12:24:34;;;;;;;8.43;5.43;;;25.50;99.90;;;;;;5021556;28;20271;-62
2021/09/07 12:30:16;;;;;;;7.23;4.70;;;25.70;99.90;;;;;;5092122;27;20621;-62
2021/09/07 12:32:50;;;;;;;7.00;4.73;;;25.70;99.90;;;;;;5072512;27;20253;-62
2021/09/07 12:35:37;;;;;;;5.63;4.50;;;25.70;99.90;;;;;;5057254;28;20287;-63
2021/09/07 12:38:08;;;;;;;6.17;4.60;;;25.90;99.90;;;;;;5075180;28;20269;-62
2021/09/07 12:40:37;;;;;;;6.13;4.10;;;26.00;99.90;;;;;;5072592;27;20272;-63
2021/09/07 12:43:12;;;;;;;8.17;5.40;;;26.20;99.90;;;;;;5073044;28;20692;-63
2021/09/07 12:45:43;;;;;;;7.50;5.30;;;26.30;99.90;;;;;;5069135;27;20226;-63
2021/09/07 12:48:12;;;;;;;6.43;4.63;;;26.20;99.90;;;;;;5071948;28;20317;-62
2021/09/07 12:50:40;;;;;;;4.97;3.67;;;25.90;99.90;;;;;;5078315;27;20242;-62
2021/09/07 12:53:08;;;;;;;8.33;4.60;;;26.00;99.90;;;;;;5066497;28;20269;-62
2021/09/07 12:55:54;;;;;;;5.97;4.80;;;26.10;99.90;;;;;;5064756;27;20335;-61
2021/09/07 12:58:22;;;;;;;5.33;4.80;;;26.20;99.90;;;;;;5077674;28;20237;-63